Terminal Aerodrome Forecast
Issued by NWS North Platte, NE

Home | Current Version | Previous Version | Text Only | Print | Product List | Glossary Off
Versions: 1 2 3 4 5 6 7 8 9 10 11 12 13 14 15 16 17 18 19 20 21 22

000
FTUS43 KLBF 260500
TAFVTN
TAF
KVTN 260521Z 2606/2706 VRB05KT P6SM SCT150
     FM261200 VRB05KT P6SM OVC100
     FM261900 14011KT P6SM BKN050
     FM270100 11007KT P6SM BKN100=

USA.gov is the U.S. government's official web portal to all federal, state and local government web resources and services.